createdAt,value
2019-04-28T00:00:45.349Z,419.91
2019-04-28T00:01:45.377Z,419.65
2019-04-28T00:02:45.321Z,420.11
2019-04-28T00:03:45.355Z,420.36
2019-04-28T00:04:45.295Z,419.65
2019-04-28T00:05:45.293Z,419.82
2019-04-28T00:06:45.268Z,419.89
2019-04-28T00:07:45.270Z,420.06
2019-04-28T00:08:45.259Z,420.23
2019-04-28T00:09:45.242Z,420.00
2019-04-28T00:10:45.237Z,419.97
2019-04-28T00:11:45.221Z,420.17
2019-04-28T00:12:45.246Z,420.01
2019-04-28T00:13:45.196Z,420.12
2019-04-28T00:14:45.201Z,420.18
2019-04-28T00:15:45.174Z,420.27
2019-04-28T00:16:45.179Z,420.01
2019-04-28T00:17:45.173Z,419.99
2019-04-28T00:18:45.133Z,420.05
2019-04-28T00:19:45.136Z,420.11
2019-04-28T00:20:45.119Z,420.05
2019-04-28T00:21:45.113Z,420.03
2019-04-28T00:22:45.118Z,420.05
2019-04-28T00:23:45.080Z,420.02
2019-04-28T00:24:45.085Z,419.92
2019-04-28T00:25:45.071Z,420.34
2019-04-28T00:26:45.052Z,419.93
2019-04-28T00:27:45.050Z,420.12
2019-04-28T00:28:45.054Z,420.01
2019-04-28T00:29:46.147Z,420.31
2019-04-28T00:30:45.005Z,419.92
2019-04-28T00:31:44.993Z,420.20
2019-04-28T00:32:45.010Z,420.10
2019-04-28T00:33:44.975Z,420.20
2019-04-28T00:34:44.959Z,420.06
2019-04-28T00:35:44.951Z,420.39
2019-04-28T00:36:44.936Z,419.97
2019-04-28T00:37:44.960Z,420.30
2019-04-28T00:38:44.928Z,419.96
2019-04-28T00:39:44.909Z,419.89
2019-04-28T00:40:44.900Z,419.99
2019-04-28T00:41:44.886Z,420.21
2019-04-28T00:42:44.883Z,419.95
2019-04-28T00:43:44.862Z,420.11
2019-04-28T00:44:44.848Z,419.85
2019-04-28T00:45:44.828Z,420.01
2019-04-28T00:46:44.836Z,420.37
2019-04-28T00:47:44.834Z,419.96
2019-04-28T00:48:44.811Z,420.25
2019-04-28T00:49:44.806Z,420.01
2019-04-28T00:50:44.777Z,420.03
2019-04-28T00:51:44.783Z,420.13
2019-04-28T00:52:44.777Z,420.02
2019-04-28T00:53:44.750Z,419.96
2019-04-28T00:54:44.743Z,420.02
2019-04-28T00:55:44.729Z,420.24
2019-04-28T00:56:44.713Z,420.16
2019-04-28T00:57:44.708Z,420.47
2019-04-28T00:58:44.693Z,419.99
2019-04-28T00:59:53.984Z,420.30
2019-04-28T01:00:45.669Z,420.10
2019-04-28T01:01:44.655Z,420.07
2019-04-28T01:02:44.666Z,420.33
2019-04-28T01:03:44.627Z,420.20
2019-04-28T01:04:44.630Z,420.21
2019-04-28T01:05:44.615Z,420.14
2019-04-28T01:06:44.624Z,420.00
2019-04-28T01:07:44.628Z,420.56
2019-04-28T01:08:44.587Z,420.19
2019-04-28T01:09:44.584Z,420.27
2019-04-28T01:10:44.558Z,420.44
2019-04-28T01:11:44.550Z,420.38
2019-04-28T01:12:46.593Z,420.21
2019-04-28T01:13:44.548Z,420.22
2019-04-28T01:14:44.580Z,420.25
2019-04-28T01:15:44.506Z,420.38
2019-04-28T01:16:44.488Z,420.20
2019-04-28T01:17:44.488Z,420.28
2019-04-28T01:18:44.498Z,420.24
2019-04-28T01:19:44.468Z,420.28
2019-04-28T01:20:44.443Z,420.24
2019-04-28T01:21:44.428Z,420.33
2019-04-28T01:22:44.434Z,420.38
2019-04-28T01:23:44.444Z,420.41
2019-04-28T01:24:44.393Z,420.51
2019-04-28T01:25:44.386Z,420.11
2019-04-28T01:26:44.399Z,420.39
2019-04-28T01:27:44.360Z,420.16
2019-04-28T01:28:44.395Z,420.04
2019-04-28T01:29:44.335Z,420.09
2019-04-28T01:30:44.333Z,420.44
2019-04-28T01:31:44.320Z,420.29
2019-04-28T01:32:44.314Z,420.20
2019-04-28T01:33:44.317Z,420.35
2019-04-28T01:34:44.300Z,420.32
2019-04-28T01:35:44.270Z,419.84
2019-04-28T01:36:44.268Z,420.04
2019-04-28T01:37:44.251Z,420.25
2019-04-28T01:38:44.260Z,420.44
2019-04-28T01:39:44.242Z,420.11
2019-04-28T01:40:44.222Z,420.44
2019-04-28T01:41:44.206Z,420.40
2019-04-28T01:42:44.200Z,420.54
2019-04-28T01:43:44.210Z,420.43
2019-04-28T01:44:44.173Z,420.17
2019-04-28T01:45:44.166Z,420.39
2019-04-28T01:46:44.148Z,420.51
2019-04-28T01:47:44.139Z,420.69
2019-04-28T01:48:44.139Z,420.61
2019-04-28T01:49:44.117Z,420.42
2019-04-28T01:50:44.107Z,420.16
2019-04-28T01:51:44.103Z,420.59
2019-04-28T01:52:44.086Z,420.52
2019-04-28T01:53:44.118Z,420.59
2019-04-28T01:54:44.059Z,420.43
2019-04-28T01:55:44.055Z,420.38
2019-04-28T01:56:44.059Z,420.77
2019-04-28T01:57:44.032Z,420.49
2019-04-28T01:58:44.041Z,420.53
2019-04-28T01:59:44.010Z,420.33
2019-04-28T02:00:43.995Z,420.62
2019-04-28T02:01:43.983Z,420.81
2019-04-28T02:02:43.978Z,420.40
2019-04-28T02:03:43.984Z,420.51
2019-04-28T02:04:43.949Z,420.36
2019-04-28T02:05:43.956Z,420.47
2019-04-28T02:06:43.926Z,420.45
2019-04-28T02:07:43.919Z,420.79
2019-04-28T02:08:43.923Z,420.88
2019-04-28T02:09:43.910Z,420.46
2019-04-28T02:10:43.875Z,420.39
2019-04-28T02:11:43.879Z,420.59
2019-04-28T02:12:43.861Z,420.73
2019-04-28T02:13:43.877Z,420.60
2019-04-28T02:14:43.838Z,420.64
2019-04-28T02:15:43.831Z,420.66
2019-04-28T02:16:43.813Z,420.54
2019-04-28T02:17:43.807Z,420.47
2019-04-28T02:18:43.799Z,420.59
2019-04-28T02:19:43.803Z,420.49
2019-04-28T02:20:43.762Z,420.44
2019-04-28T02:21:43.767Z,420.43
2019-04-28T02:22:43.745Z,420.14
2019-04-28T02:23:43.737Z,420.60
2019-04-28T02:24:43.767Z,420.84
2019-04-28T02:25:43.716Z,420.78
2019-04-28T02:26:43.726Z,420.24
2019-04-28T02:27:43.704Z,420.32
2019-04-28T02:28:43.690Z,420.22
2019-04-28T02:29:43.693Z,420.41
2019-04-28T02:30:49.471Z,420.42
2019-04-28T02:31:44.695Z,420.07
2019-04-28T02:32:43.648Z,420.62
2019-04-28T02:33:43.654Z,420.47
2019-04-28T02:34:43.634Z,420.66
2019-04-28T02:35:43.638Z,420.34
2019-04-28T02:36:43.607Z,420.13
2019-04-28T02:37:43.590Z,420.21
2019-04-28T02:38:43.582Z,420.16
2019-04-28T02:39:43.605Z,420.32
2019-04-28T02:40:43.558Z,420.25
2019-04-28T02:41:43.552Z,420.56
2019-04-28T02:42:44.445Z,420.22
2019-04-28T02:43:43.542Z,420.36
2019-04-28T02:44:43.514Z,420.46
2019-04-28T02:45:43.506Z,420.52
2019-04-28T02:46:43.488Z,420.47
2019-04-28T02:47:43.478Z,420.05
2019-04-28T02:48:43.487Z,420.57
2019-04-28T02:49:43.485Z,420.64
2019-04-28T02:50:43.440Z,420.55
2019-04-28T02:51:43.435Z,420.83
2019-04-28T02:52:43.423Z,420.60
2019-04-28T02:53:43.425Z,420.47
2019-04-28T02:54:43.401Z,420.58
2019-04-28T02:55:43.403Z,420.24
2019-04-28T02:56:43.771Z,420.50
2019-04-28T02:57:43.373Z,420.28
2019-04-28T02:58:43.356Z,420.63
2019-04-28T02:59:44.752Z,420.35
2019-04-28T03:01:00.783Z,420.59
2019-04-28T03:01:44.322Z,420.66
2019-04-28T03:02:43.310Z,420.40
2019-04-28T03:03:43.309Z,420.62
2019-04-28T03:04:43.279Z,420.59
2019-04-28T03:05:43.290Z,420.50
2019-04-28T03:06:43.264Z,420.86
2019-04-28T03:07:43.259Z,420.49
2019-04-28T03:08:43.249Z,420.45
2019-04-28T03:09:43.246Z,420.42
2019-04-28T03:10:43.239Z,420.36
2019-04-28T03:11:43.272Z,420.44
2019-04-28T03:12:43.199Z,421.05
2019-04-28T03:13:43.194Z,420.32
2019-04-28T03:14:44.135Z,420.55
2019-04-28T03:15:43.177Z,420.20
2019-04-28T03:16:43.155Z,420.36
2019-04-28T03:17:43.135Z,420.37
2019-04-28T03:18:43.135Z,420.50
2019-04-28T03:19:43.129Z,420.59
2019-04-28T03:20:43.136Z,420.46
2019-04-28T03:21:43.101Z,420.76
2019-04-28T03:22:43.085Z,420.53
2019-04-28T03:23:43.082Z,420.67
2019-04-28T03:24:43.069Z,420.47
2019-04-28T03:25:43.077Z,420.54
2019-04-28T03:26:43.037Z,420.41
2019-04-28T03:27:43.037Z,420.37
2019-04-28T03:28:43.022Z,420.53
2019-04-28T03:29:43.015Z,420.67
2019-04-28T03:30:44.204Z,420.24
2019-04-28T03:32:52.400Z,420.45
2019-04-28T03:33:48.945Z,420.43
2019-04-28T03:34:44.599Z,420.33
2019-04-28T03:35:44.177Z,420.38
2019-04-28T03:36:42.937Z,420.13
2019-04-28T03:37:42.938Z,420.01
2019-04-28T03:38:42.911Z,420.30
2019-04-28T03:39:42.896Z,420.40
2019-04-28T03:40:42.905Z,420.40
2019-04-28T03:41:42.873Z,420.43
2019-04-28T03:42:42.883Z,420.29
2019-04-28T03:43:42.855Z,420.44
2019-04-28T03:44:42.851Z,420.45
2019-04-28T03:45:42.843Z,420.52
2019-04-28T03:46:42.823Z,420.50
2019-04-28T03:47:42.805Z,420.37
2019-04-28T03:48:42.803Z,420.60
2019-04-28T03:49:43.317Z,420.62
2019-04-28T03:50:42.796Z,420.65
2019-04-28T03:51:42.758Z,420.40
2019-04-28T03:52:42.761Z,420.39
2019-04-28T03:53:42.741Z,420.49
2019-04-28T03:54:42.732Z,420.49
2019-04-28T03:55:42.727Z,420.40
2019-04-28T03:56:42.729Z,420.51
2019-04-28T03:57:42.689Z,420.44
2019-04-28T03:58:42.697Z,420.38
2019-04-28T03:59:43.784Z,420.29
2019-04-28T04:00:42.666Z,420.21
2019-04-28T04:01:55.611Z,420.69
2019-04-28T04:02:43.650Z,420.23
2019-04-28T04:03:42.629Z,420.30
2019-04-28T04:04:42.616Z,420.67
2019-04-28T04:05:42.624Z,420.30
2019-04-28T04:06:42.656Z,420.66
2019-04-28T04:07:43.243Z,420.66
2019-04-28T04:08:42.575Z,420.55
2019-04-28T04:09:42.558Z,420.70
2019-04-28T04:10:42.554Z,420.59
2019-04-28T04:11:42.570Z,420.23
2019-04-28T04:12:42.530Z,420.94
2019-04-28T04:13:42.515Z,420.34
2019-04-28T04:14:42.508Z,420.29
2019-04-28T04:15:42.501Z,420.43
2019-04-28T04:16:42.491Z,420.63
2019-04-28T04:17:42.498Z,420.48
2019-04-28T04:18:42.464Z,420.40
2019-04-28T04:19:42.457Z,420.35
2019-04-28T04:20:42.450Z,420.71
2019-04-28T04:21:42.448Z,420.45
2019-04-28T04:22:42.416Z,420.34
2019-04-28T04:23:42.406Z,420.65
2019-04-28T04:24:42.395Z,420.47
2019-04-28T04:25:42.393Z,420.31
2019-04-28T04:26:42.389Z,420.56
2019-04-28T04:27:42.360Z,420.53
2019-04-28T04:28:42.350Z,420.52
2019-04-28T04:29:43.608Z,420.31
2019-04-28T04:30:42.348Z,420.50
2019-04-28T04:31:42.333Z,420.38
2019-04-28T04:32:42.314Z,420.36
2019-04-28T04:33:42.306Z,420.37
2019-04-28T04:34:42.281Z,420.45
2019-04-28T04:35:43.632Z,420.41
2019-04-28T04:36:42.275Z,420.36
2019-04-28T04:37:42.262Z,420.38
2019-04-28T04:38:45.953Z,420.40
2019-04-28T04:39:42.234Z,420.21
2019-04-28T04:40:42.219Z,420.10
2019-04-28T04:41:43.765Z,420.32
2019-04-28T04:42:42.204Z,420.40
2019-04-28T04:43:42.189Z,420.22
2019-04-28T04:44:42.179Z,420.33
2019-04-28T04:45:42.171Z,420.16
2019-04-28T04:46:42.171Z,420.16
2019-04-28T04:47:42.196Z,420.41
2019-04-28T04:48:42.131Z,420.49
2019-04-28T04:49:42.123Z,420.65
2019-04-28T04:50:42.118Z,420.41
2019-04-28T04:51:43.869Z,420.35
2019-04-28T04:52:42.096Z,420.44
2019-04-28T04:53:42.067Z,420.30
2019-04-28T04:54:42.074Z,420.40
2019-04-28T04:55:42.051Z,420.32
2019-04-28T04:56:42.050Z,420.42
2019-04-28T04:57:42.053Z,420.07
2019-04-28T04:58:42.019Z,420.12
2019-04-28T04:59:42.011Z,420.42
2019-04-28T05:00:43.442Z,420.60
2019-04-28T05:01:41.986Z,420.47
2019-04-28T05:02:50.732Z,420.28
2019-04-28T05:03:42.959Z,420.27
2019-04-28T05:04:41.947Z,420.28
2019-04-28T05:05:41.941Z,420.28
2019-04-28T05:06:41.919Z,420.38
2019-04-28T05:07:41.922Z,420.21
2019-04-28T05:08:41.903Z,420.59
2019-04-28T05:09:41.909Z,420.29
2019-04-28T05:10:41.888Z,420.10
2019-04-28T05:11:41.879Z,420.31
2019-04-28T05:12:41.877Z,420.31
2019-04-28T05:13:41.857Z,420.33
2019-04-28T05:14:41.835Z,420.38
2019-04-28T05:15:41.833Z,420.24
2019-04-28T05:16:41.818Z,420.19
2019-04-28T05:17:41.815Z,420.33
2019-04-28T05:18:41.808Z,420.38
2019-04-28T05:19:41.776Z,420.45
2019-04-28T05:20:41.775Z,420.55
2019-04-28T05:21:41.763Z,420.21
2019-04-28T05:22:42.671Z,420.46
2019-04-28T05:23:41.737Z,420.50
2019-04-28T05:24:41.729Z,420.24
2019-04-28T05:25:41.725Z,420.50
2019-04-28T05:26:47.492Z,420.56
2019-04-28T05:27:42.713Z,420.33
2019-04-28T05:28:50.612Z,420.54
2019-04-28T05:29:42.669Z,420.44
2019-04-28T05:30:43.012Z,420.54
2019-04-28T05:31:41.664Z,420.62
2019-04-28T05:32:45.353Z,420.41
2019-04-28T05:33:42.636Z,420.76
2019-04-28T05:34:46.596Z,420.38
2019-04-28T05:35:42.608Z,420.70
2019-04-28T05:36:44.519Z,420.58
2019-04-28T05:37:41.596Z,420.48
2019-04-28T05:38:42.187Z,420.62
2019-04-28T05:39:41.562Z,420.67
2019-04-28T05:40:41.549Z,420.94
2019-04-28T05:41:41.540Z,420.49
2019-04-28T05:42:41.560Z,420.79
2019-04-28T05:43:41.515Z,420.74
2019-04-28T05:44:41.509Z,420.42
2019-04-28T05:45:41.495Z,420.53
2019-04-28T05:46:41.478Z,420.95
2019-04-28T05:47:41.466Z,420.39
2019-04-28T05:48:41.490Z,420.28
2019-04-28T05:49:41.455Z,420.58
2019-04-28T05:50:41.448Z,420.96
2019-04-28T05:51:41.440Z,420.49
2019-04-28T05:52:41.410Z,420.77
2019-04-28T05:53:41.448Z,420.92
2019-04-28T05:54:41.388Z,420.62
2019-04-28T05:55:41.892Z,420.62
2019-04-28T05:56:41.373Z,421.10
2019-04-28T05:57:41.355Z,420.64
2019-04-28T05:58:41.369Z,420.95
2019-04-28T05:59:41.350Z,420.77
2019-04-28T06:00:41.857Z,420.69
2019-04-28T06:01:41.318Z,420.85
2019-04-28T06:02:54.156Z,420.59
2019-04-28T06:03:42.317Z,420.58
2019-04-28T06:04:41.279Z,420.91
2019-04-28T06:05:41.273Z,420.57
2019-04-28T06:06:41.274Z,420.62
2019-04-28T06:07:41.246Z,420.57
2019-04-28T06:08:41.265Z,420.48
2019-04-28T06:09:41.229Z,420.41
2019-04-28T06:10:41.227Z,420.55
2019-04-28T06:11:41.213Z,420.37
2019-04-28T06:12:41.192Z,420.37
2019-04-28T06:13:41.200Z,420.68
2019-04-28T06:14:41.185Z,420.58
2019-04-28T06:15:41.168Z,420.48
2019-04-28T06:16:41.162Z,420.67
2019-04-28T06:17:41.146Z,420.48
2019-04-28T06:18:42.131Z,420.18
2019-04-28T06:19:41.120Z,420.80
2019-04-28T06:20:41.111Z,420.55
2019-04-28T06:21:41.095Z,420.29
2019-04-28T06:22:41.082Z,420.67
2019-04-28T06:23:41.087Z,420.36
2019-04-28T06:24:41.068Z,420.24
2019-04-28T06:25:41.056Z,420.81
2019-04-28T06:26:41.080Z,420.60
2019-04-28T06:27:41.029Z,420.45
2019-04-28T06:28:41.035Z,420.83
2019-04-28T06:29:41.025Z,420.47
2019-04-28T06:30:40.995Z,420.95
2019-04-28T06:31:40.987Z,420.51
2019-04-28T06:32:40.975Z,420.77
2019-04-28T06:33:41.027Z,420.83
2019-04-28T06:34:40.989Z,420.68
2019-04-28T06:35:40.947Z,420.74
2019-04-28T06:36:40.929Z,420.70
2019-04-28T06:37:40.935Z,420.82
2019-04-28T06:38:40.905Z,420.72
2019-04-28T06:39:40.917Z,420.97
2019-04-28T06:40:40.926Z,420.90
2019-04-28T06:41:40.877Z,420.88
2019-04-28T06:42:40.872Z,420.63
2019-04-28T06:43:40.853Z,420.79
2019-04-28T06:44:40.849Z,420.85
2019-04-28T06:45:40.927Z,420.97
2019-04-28T06:46:40.847Z,420.76
2019-04-28T06:47:40.807Z,420.76
2019-04-28T06:48:40.801Z,421.07
2019-04-28T06:49:40.818Z,420.80
2019-04-28T06:50:40.771Z,420.70
2019-04-28T06:51:40.756Z,420.71
2019-04-28T06:52:40.769Z,420.66
2019-04-28T06:53:40.739Z,420.89
2019-04-28T06:54:40.753Z,420.81
2019-04-28T06:55:40.731Z,420.83
2019-04-28T06:56:40.708Z,421.08
2019-04-28T06:57:40.706Z,421.00
2019-04-28T06:58:40.688Z,420.96
2019-04-28T06:59:40.692Z,421.01
2019-04-28T07:00:40.675Z,420.92
2019-04-28T07:01:40.657Z,420.92
2019-04-28T07:02:40.659Z,420.99
2019-04-28T07:03:40.624Z,421.00
2019-04-28T07:04:40.684Z,420.77
2019-04-28T07:05:40.648Z,420.81
2019-04-28T07:06:40.613Z,420.76
2019-04-28T07:07:40.598Z,421.18
2019-04-28T07:08:40.582Z,420.87
2019-04-28T07:09:40.600Z,421.02
2019-04-28T07:10:40.552Z,420.73
2019-04-28T07:11:40.553Z,420.95
2019-04-28T07:12:40.533Z,420.74
2019-04-28T07:13:40.526Z,420.61
2019-04-28T07:14:40.522Z,420.77
2019-04-28T07:15:40.500Z,420.80
2019-04-28T07:16:40.508Z,420.84
2019-04-28T07:17:40.513Z,420.93
2019-04-28T07:18:40.469Z,420.89
2019-04-28T07:19:40.466Z,420.77
2019-04-28T07:20:40.436Z,420.73
2019-04-28T07:21:40.432Z,420.76
2019-04-28T07:22:40.415Z,420.82
2019-04-28T07:23:40.415Z,421.19
2019-04-28T07:24:40.434Z,420.78
2019-04-28T07:25:40.401Z,420.54
2019-04-28T07:26:40.389Z,420.85
2019-04-28T07:27:40.360Z,420.97
2019-04-28T07:28:40.380Z,420.68
2019-04-28T07:29:40.338Z,420.52
2019-04-28T07:30:40.336Z,421.07
2019-04-28T07:31:40.311Z,421.01
2019-04-28T07:32:40.336Z,420.50
2019-04-28T07:33:40.297Z,421.00
2019-04-28T07:34:40.292Z,420.60
2019-04-28T07:35:40.340Z,421.00
2019-04-28T07:36:40.278Z,420.75
2019-04-28T07:37:40.269Z,420.71
2019-04-28T07:38:40.241Z,420.57
2019-04-28T07:39:40.224Z,420.86
2019-04-28T07:40:40.239Z,421.11
2019-04-28T07:41:40.211Z,420.60
2019-04-28T07:42:40.189Z,420.68
2019-04-28T07:43:40.189Z,420.70
2019-04-28T07:44:40.177Z,420.62
2019-04-28T07:45:40.168Z,420.45
2019-04-28T07:46:40.161Z,420.56
2019-04-28T07:47:40.150Z,420.39
2019-04-28T07:48:40.160Z,420.75
2019-04-28T07:49:40.116Z,420.80
2019-04-28T07:50:40.145Z,420.62
2019-04-28T07:51:40.106Z,420.60
2019-04-28T07:52:40.109Z,420.57
2019-04-28T07:53:40.070Z,420.72
2019-04-28T07:54:40.225Z,420.37
2019-04-28T07:55:40.085Z,420.45
2019-04-28T07:56:40.049Z,419.98
2019-04-28T07:57:40.035Z,420.25
2019-04-28T07:58:40.029Z,420.31
2019-04-28T07:59:40.013Z,420.16
2019-04-28T08:00:40.007Z,420.16
2019-04-28T08:01:39.995Z,420.15
2019-04-28T08:02:39.987Z,420.49
2019-04-28T08:03:49.277Z,420.42
2019-04-28T08:04:40.961Z,420.43
2019-04-28T08:05:39.973Z,420.39
2019-04-28T08:06:39.938Z,420.27
2019-04-28T08:07:39.917Z,420.30
2019-04-28T08:08:39.904Z,420.37
2019-04-28T08:09:39.890Z,420.15
2019-04-28T08:10:39.959Z,420.29
2019-04-28T08:11:39.878Z,420.35
2019-04-28T08:12:39.857Z,420.44
2019-04-28T08:13:39.846Z,420.00
2019-04-28T08:14:39.846Z,420.53
2019-04-28T08:15:39.848Z,420.39
2019-04-28T08:16:39.820Z,420.77
2019-04-28T08:17:39.826Z,420.53
2019-04-28T08:18:39.793Z,420.34
2019-04-28T08:19:39.793Z,420.26
2019-04-28T08:20:40.163Z,420.27
2019-04-28T08:21:39.763Z,420.33
2019-04-28T08:22:39.761Z,420.60
2019-04-28T08:23:46.986Z,420.49
2019-04-28T08:24:40.741Z,420.58
2019-04-28T08:25:39.746Z,420.43
2019-04-28T08:26:39.744Z,420.52
2019-04-28T08:27:39.700Z,420.31
2019-04-28T08:28:39.690Z,420.34
2019-04-28T08:29:39.675Z,420.83
2019-04-28T08:30:39.662Z,420.26
2019-04-28T08:31:39.654Z,420.40
2019-04-28T08:32:39.646Z,420.35
2019-04-28T08:33:39.629Z,419.76
2019-04-28T08:34:39.620Z,420.04
2019-04-28T08:35:39.624Z,420.40
2019-04-28T08:36:39.628Z,420.02
2019-04-28T08:37:39.586Z,420.11
2019-04-28T08:38:39.570Z,419.92
2019-04-28T08:39:39.568Z,419.80
2019-04-28T08:40:39.620Z,420.04
2019-04-28T08:41:39.556Z,420.40
2019-04-28T08:42:39.521Z,420.43
2019-04-28T08:43:39.518Z,420.30
2019-04-28T08:44:39.502Z,420.79
2019-04-28T08:45:39.494Z,420.65
2019-04-28T08:46:39.516Z,420.71
2019-04-28T08:47:39.467Z,420.18
2019-04-28T08:48:39.473Z,420.67
2019-04-28T08:49:39.456Z,420.76
2019-04-28T08:50:39.439Z,420.50
2019-04-28T08:51:39.444Z,420.38
2019-04-28T08:52:39.430Z,420.49
2019-04-28T08:53:39.408Z,420.40
2019-04-28T08:54:39.390Z,420.59
2019-04-28T08:55:39.412Z,420.34
2019-04-28T08:56:39.398Z,420.42
2019-04-28T08:57:39.366Z,420.73
2019-04-28T08:58:39.349Z,420.57
2019-04-28T08:59:39.345Z,420.45
2019-04-28T09:00:39.330Z,420.77
2019-04-28T09:01:39.339Z,420.27
2019-04-28T09:02:39.316Z,420.40
2019-04-28T09:03:39.288Z,420.76
2019-04-28T09:04:39.280Z,420.42
2019-04-28T09:05:39.280Z,420.21
2019-04-28T09:06:39.281Z,420.71
2019-04-28T09:07:39.254Z,420.42
2019-04-28T09:08:39.241Z,420.71
2019-04-28T09:09:39.247Z,420.43
2019-04-28T09:10:39.230Z,420.40
2019-04-28T09:11:39.232Z,420.54
2019-04-28T09:12:39.420Z,420.67
2019-04-28T09:13:39.185Z,420.81
2019-04-28T09:14:39.186Z,420.85
2019-04-28T09:15:39.162Z,420.90
2019-04-28T09:16:39.175Z,420.52
2019-04-28T09:17:39.139Z,420.72
2019-04-28T09:18:39.125Z,420.83
2019-04-28T09:19:39.123Z,420.77
2019-04-28T09:20:39.109Z,420.87
2019-04-28T09:21:39.115Z,420.93
2019-04-28T09:22:39.088Z,420.88
2019-04-28T09:23:39.070Z,420.91
2019-04-28T09:24:39.060Z,421.17
2019-04-28T09:25:39.062Z,421.01
2019-04-28T09:26:39.063Z,420.77
2019-04-28T09:27:39.047Z,420.87
2019-04-28T09:28:39.017Z,420.97
2019-04-28T09:29:39.017Z,420.81
2019-04-28T09:30:39.101Z,420.62
2019-04-28T09:31:38.986Z,420.92
2019-04-28T09:32:38.993Z,420.86
2019-04-28T09:33:38.971Z,420.79
2019-04-28T09:34:38.959Z,420.83
2019-04-28T09:35:38.951Z,420.96
2019-04-28T09:36:38.948Z,420.79
2019-04-28T09:37:38.939Z,420.67
2019-04-28T09:38:38.914Z,420.66
2019-04-28T09:39:38.893Z,420.59
2019-04-28T09:40:38.893Z,420.71
2019-04-28T09:41:38.871Z,420.76
2019-04-28T09:42:39.546Z,420.73
2019-04-28T09:43:38.865Z,420.83
2019-04-28T09:44:38.834Z,421.12
2019-04-28T09:45:39.553Z,420.78
2019-04-28T09:46:38.821Z,420.96
2019-04-28T09:47:38.824Z,420.73
2019-04-28T09:48:38.805Z,421.01
2019-04-28T09:49:38.794Z,420.62
2019-04-28T09:50:38.780Z,420.88
2019-04-28T09:51:38.773Z,421.11
2019-04-28T09:52:38.809Z,421.21
2019-04-28T09:53:38.778Z,420.51
2019-04-28T09:54:38.738Z,420.98
2019-04-28T09:55:38.745Z,420.86
2019-04-28T09:56:38.708Z,420.77
2019-04-28T09:57:38.710Z,420.61
2019-04-28T09:58:38.688Z,420.90
2019-04-28T09:59:38.714Z,420.88
2019-04-28T10:00:39.649Z,421.09
2019-04-28T10:01:38.650Z,420.81
2019-04-28T10:02:39.139Z,420.84
2019-04-28T10:03:38.625Z,420.35
2019-04-28T10:04:41.838Z,420.58
2019-04-28T10:05:38.603Z,420.20
2019-04-28T10:06:38.603Z,420.33
2019-04-28T10:07:38.606Z,420.23
2019-04-28T10:08:38.642Z,420.24
2019-04-28T10:09:38.574Z,420.26
2019-04-28T10:10:38.561Z,420.44
2019-04-28T10:11:38.539Z,420.30
2019-04-28T10:12:38.555Z,420.24
2019-04-28T10:13:38.516Z,420.14
2019-04-28T10:14:38.504Z,420.12
2019-04-28T10:15:38.503Z,419.87
2019-04-28T10:16:38.499Z,420.09
2019-04-28T10:17:38.490Z,420.27
2019-04-28T10:18:38.460Z,420.22
2019-04-28T10:19:38.448Z,420.44
2019-04-28T10:20:38.448Z,420.35
2019-04-28T10:21:38.430Z,420.12
2019-04-28T10:22:38.451Z,420.30
2019-04-28T10:23:38.457Z,420.38
2019-04-28T10:24:38.394Z,420.48
2019-04-28T10:25:38.390Z,420.63
2019-04-28T10:26:38.377Z,420.51
2019-04-28T10:27:38.374Z,420.22
2019-04-28T10:28:38.365Z,420.34
2019-04-28T10:29:38.357Z,420.28
2019-04-28T10:30:38.331Z,420.45
2019-04-28T10:31:38.330Z,420.11
2019-04-28T10:32:38.323Z,420.00
2019-04-28T10:33:38.316Z,420.51
2019-04-28T10:34:38.368Z,420.36
2019-04-28T10:35:38.290Z,420.22
2019-04-28T10:36:38.314Z,420.20
2019-04-28T10:37:38.260Z,420.52
2019-04-28T10:38:38.266Z,420.31
2019-04-28T10:39:38.238Z,420.49
2019-04-28T10:40:38.231Z,420.26
2019-04-28T10:41:38.224Z,420.04
2019-04-28T10:42:38.204Z,420.21
2019-04-28T10:43:38.221Z,420.14
2019-04-28T10:44:38.181Z,420.16
2019-04-28T10:45:38.161Z,420.05
2019-04-28T10:46:38.166Z,420.27
2019-04-28T10:47:38.165Z,420.27
2019-04-28T10:48:38.151Z,420.14
2019-04-28T10:49:38.148Z,420.13
2019-04-28T10:50:38.121Z,420.29
2019-04-28T10:51:38.114Z,420.45
2019-04-28T10:52:38.111Z,420.07
2019-04-28T10:53:38.117Z,420.18
2019-04-28T10:54:38.069Z,420.10
2019-04-28T10:55:38.057Z,420.34
2019-04-28T10:56:38.054Z,420.29
2019-04-28T10:57:38.050Z,420.35
2019-04-28T10:58:38.041Z,420.29
2019-04-28T10:59:38.007Z,420.70
2019-04-28T11:00:38.011Z,420.47
2019-04-28T11:01:37.988Z,420.48
2019-04-28T11:02:37.967Z,420.06
2019-04-28T11:03:37.980Z,420.43
2019-04-28T11:04:37.952Z,419.90
2019-04-28T11:05:37.941Z,420.47
2019-04-28T11:06:37.943Z,420.55
2019-04-28T11:07:37.919Z,420.63
2019-04-28T11:08:37.945Z,420.55
2019-04-28T11:09:37.905Z,420.67
2019-04-28T11:10:37.902Z,420.65
2019-04-28T11:11:37.878Z,420.53
2019-04-28T11:12:37.879Z,420.48
2019-04-28T11:13:37.878Z,420.35
2019-04-28T11:14:37.843Z,420.37
2019-04-28T11:15:37.836Z,420.05
2019-04-28T11:16:37.833Z,420.12
2019-04-28T11:17:37.832Z,419.92
2019-04-28T11:18:37.820Z,420.15
2019-04-28T11:19:37.776Z,420.31
2019-04-28T11:20:37.778Z,420.10
2019-04-28T11:21:37.758Z,420.06
2019-04-28T11:22:37.763Z,420.22
2019-04-28T11:23:37.764Z,420.07
2019-04-28T11:24:37.751Z,419.85
2019-04-28T11:25:37.712Z,419.70
2019-04-28T11:26:37.711Z,419.92
2019-04-28T11:27:37.714Z,419.73
2019-04-28T11:28:37.931Z,420.02
2019-04-28T11:29:37.742Z,420.05
2019-04-28T11:30:37.680Z,419.58
2019-04-28T11:31:37.657Z,419.79
2019-04-28T11:32:37.669Z,419.60
2019-04-28T11:33:37.660Z,420.05
2019-04-28T11:34:37.622Z,420.07
2019-04-28T11:35:37.612Z,420.11
2019-04-28T11:36:37.594Z,419.82
2019-04-28T11:37:37.582Z,420.19
2019-04-28T11:38:37.604Z,420.05
2019-04-28T11:39:37.577Z,420.35
2019-04-28T11:40:37.551Z,420.22
2019-04-28T11:41:37.540Z,420.27
2019-04-28T11:42:37.526Z,419.99
2019-04-28T11:43:37.558Z,420.25
2019-04-28T11:44:37.524Z,420.20
2019-04-28T11:45:37.510Z,420.25
2019-04-28T11:46:37.492Z,420.50
2019-04-28T11:47:37.474Z,420.22
2019-04-28T11:48:37.474Z,420.36
2019-04-28T11:49:37.468Z,420.28
2019-04-28T11:50:37.448Z,420.18
2019-04-28T11:51:37.434Z,420.56
2019-04-28T11:52:37.428Z,420.28
2019-04-28T11:53:37.413Z,420.02
2019-04-28T11:54:37.424Z,420.21
2019-04-28T11:55:37.393Z,420.20
2019-04-28T11:56:41.616Z,419.99
2019-04-28T11:57:37.377Z,420.37
2019-04-28T11:58:37.367Z,420.31
2019-04-28T11:59:37.353Z,420.21
2019-04-28T12:00:37.335Z,420.40
2019-04-28T12:01:37.325Z,420.63
2019-04-28T12:02:37.307Z,420.33
2019-04-28T12:03:37.305Z,420.56
2019-04-28T12:04:37.305Z,420.38
2019-04-28T12:05:38.515Z,420.20
2019-04-28T12:06:37.269Z,420.46
2019-04-28T12:07:37.252Z,420.36
2019-04-28T12:08:37.287Z,420.41
2019-04-28T12:09:37.266Z,420.13
2019-04-28T12:10:37.246Z,419.96
2019-04-28T12:11:37.200Z,420.22
2019-04-28T12:12:37.204Z,419.83
2019-04-28T12:13:37.188Z,419.96
2019-04-28T12:14:37.205Z,420.18
2019-04-28T12:15:37.182Z,420.25
2019-04-28T12:16:37.165Z,419.83
2019-04-28T12:17:37.142Z,419.79
2019-04-28T12:18:37.134Z,419.79
2019-04-28T12:19:37.151Z,419.71
2019-04-28T12:20:37.112Z,419.80
2019-04-28T12:21:37.094Z,419.60
2019-04-28T12:22:37.105Z,419.71
2019-04-28T12:23:37.069Z,419.68
2019-04-28T12:24:37.095Z,419.65
2019-04-28T12:25:37.058Z,419.86
2019-04-28T12:26:37.067Z,419.62
2019-04-28T12:27:37.029Z,419.96
2019-04-28T12:28:37.027Z,420.04
2019-04-28T12:29:37.039Z,419.89